Terminal Aerodrome Forecast
Issued by NWS Louisville, KY

Home | Current Version | Previous Version | Text Only | Print | Product List | Glossary On
Versions: 1 2 3 4 5 6 7 8 9 10 11 12 13 14
000
FTUS43 KLMK 210500
TAFBWG
TAF
KBWG 210524Z 2106/2206 22004KT P6SM SCT250
     FM210900 22006KT 5SM BR SCT030 BKN250 WS015/25030KT
     FM211300 25009KT P6SM VCSH BKN040
     FM211800 30011G17KT P6SM BKN040
     FM220000 31005KT P6SM SKC=

USA.gov is the U.S. government's official web portal to all federal, state and local government web resources and services.